This is the latest recevied weather packets stored in our database for station/object KE5QKR. If no packets are shown the sender has not sent any weather packets the latest 10 day(s).
| Time | Temp. | Humidity | Pressure | Rain* | Wind** | Luminosity | Snow |
|---|---|---|---|---|---|---|---|
| 1777670291 | 12.78° C | 99% | 1009.9 hPa | 0 mm | - | 28 W/m² | - |
| 1777669988 | 13.33° C | 99% | 1010.3 hPa | 0 mm | - | 19 W/m² | - |
| 1777669685 | 13.33° C | 99% | 1010.2 hPa | 0 mm | - | 16 W/m² | - |
| 1777669382 | 13.33° C | 99% | 1010.1 hPa | 0 mm | - | 31 W/m² | - |
| 1777669078 | 13.89° C | 99% | 1010.4 hPa | 0 mm | - | 19 W/m² | - |
| 1777668775 | 13.89° C | 99% | 1010.4 hPa | 0 mm | - | 18 W/m² | - |
| 1777668471 | 14.44° C | 99% | 1010.7 hPa | 0 mm | - | 17 W/m² | - |
| 1777668168 | 14.44° C | 99% | 1010.2 hPa | 0 mm | - | 16 W/m² | - |
| 1777667865 | 15° C | 99% | 1010.1 hPa | 0 mm | - | 22 W/m² | - |
| 1777667562 | 15.56° C | 99% | 1010.3 hPa | 0 mm | - | 18 W/m² | - |
| 1777667259 | 15.56° C | 99% | 1010.3 hPa | 0 mm | - | 10 W/m² | - |
| 1777666956 | 15.56° C | 99% | 1010.2 hPa | 0 mm | - | 32 W/m² | - |
| 1777666653 | 16.11° C | 99% | 1010.2 hPa | 0 mm | - | 9 W/m² | - |
| 1777666350 | 15.56° C | 99% | 1009.4 hPa | 0 mm | - | 35 W/m² | - |
| 1777666047 | 15.56° C | 99% | 1010.1 hPa | 0 mm | - | 23 W/m² | - |
| 1777665744 | 16.11° C | 99% | 1010.1 hPa | 0 mm | - | 3 W/m² | - |
| 1777665441 | 15.56° C | 99% | 1009.3 hPa | 0 mm | - | 35 W/m² | - |
| 1777665137 | 16.11° C | 99% | 1009.2 hPa | 0 mm | - | 38 W/m² | - |
| 1777664833 | 16.11° C | 99% | 1010.5 hPa | 0 mm | - | 8 W/m² | - |
| 1777664528 | 16.11° C | 99% | 1009.7 hPa | 0 mm | - | 3 W/m² | - |
| 1777664225 | 16.11° C | 98% | 1008.5 hPa | 0 mm | - | 16 W/m² | - |
| 1777663924 | 16.11° C | 97% | 1008.8 hPa | 0 mm | - | 30 W/m² | - |
| 1777663621 | 16.67° C | 96% | 1008.3 hPa | 0 mm | - | 18 W/m² | - |
| 1777663318 | 16.67° C | 94% | 1008.3 hPa | 0 mm | - | 44 W/m² | - |
| 1777663015 | 16.67° C | 94% | 1008.6 hPa | 0 mm | - | 46 W/m² | - |
* Rain latest hour (hover to see other rain measurements)
** Current wind speed in m/s (hover to see current wind gust speed)